Time;durP1;ratioP1;P1;durP2;ratioP2;P2;SDS_P1;SDS_P2;PMS_P1;PMS_P2;Temp;Humidity;BMP_temperature;BMP_pressure;BME280_temperature;BME280_humidity;BME280_pressure;Samples;Min_cycle;Max_cycle;Signal;HPM_P1;HPM_P2
2022/02/01 00:03:48;;;;;;;15.45;1.83;;;;;;;;;;4787084;29;88805;-69
2022/02/01 00:08:50;;;;;;;1.40;1.30;;;;;;;;;;4759603;29;86980;-67
2022/02/01 00:14:33;;;;;;;1.30;1.20;;;;;;;;;;4767044;29;87978;-68
2022/02/01 00:36:18;;;;;;;1.50;1.40;;;;;;;;;;4774536;29;87790;-69
2022/02/01 00:38:57;;;;;;;1.75;1.65;;;;;;;;;;4775201;29;87002;-68
2022/02/01 00:41:29;;;;;;;2.35;1.50;;;;;;;;;;4765096;29;87506;-68
2022/02/01 00:43:56;;;;;;;1.10;1.10;;;;;;;;;;4771096;29;86248;-68
2022/02/01 00:46:23;;;;;;;3.20;1.23;;;;;;;;;;4768613;29;88392;-68
2022/02/01 00:48:50;;;;;;;1.48;1.38;;;;;;;;;;4764687;29;88028;-68
2022/02/01 00:51:18;;;;;;;1.40;1.30;;;;;;;;;;4768272;29;88030;-69
2022/02/01 00:53:45;;;;;;;2.47;1.30;;;;;;;;;;4783894;29;86936;-68
2022/02/01 00:56:14;;;;;;;1.10;1.10;;;;;;;;;;4769164;29;89265;-68
2022/02/01 00:58:42;;;;;;;1.10;1.10;;;;;;;;;;4754931;29;87467;-68
2022/02/01 01:01:09;;;;;;;2.85;1.10;;;;;;;;;;4767034;29;87638;-68
2022/02/01 01:03:36;;;;;;;1.20;1.10;;;;;;;;;;4768364;29;87068;-69
2022/02/01 01:06:04;;;;;;;1.13;1.10;;;;;;;;;;4782955;29;88491;-68
2022/02/01 01:08:31;;;;;;;1.48;1.38;;;;;;;;;;4770712;29;87794;-68
2022/02/01 01:10:58;;;;;;;2.70;1.20;;;;;;;;;;4773282;29;87017;-68
2022/02/01 01:54:04;;;;;;;1.20;1.20;;;;;;;;;;4775149;29;86916;-68
2022/02/01 01:56:33;;;;;;;1.25;1.20;;;;;;;;;;4775590;29;86855;-68
2022/02/01 01:59:01;;;;;;;1.35;1.25;;;;;;;;;;4789507;29;88227;-69
2022/02/01 02:01:29;;;;;;;1.25;1.20;;;;;;;;;;4759567;29;87545;-68
2022/02/01 02:03:56;;;;;;;1.30;1.20;;;;;;;;;;4790001;29;86921;-68
2022/02/01 02:06:23;;;;;;;1.40;1.30;;;;;;;;;;4774371;29;87110;-69
2022/02/01 02:08:53;;;;;;;1.33;1.15;;;;;;;;;;4789123;29;88808;-68
2022/02/01 02:16:55;;;;;;;1.70;1.60;;;;;;;;;;4775546;29;87686;-68
2022/02/01 02:19:24;;;;;;;1.58;1.48;;;;;;;;;;4788513;29;88342;-68
2022/02/01 02:21:53;;;;;;;1.35;1.23;;;;;;;;;;4774697;29;87936;-69
2022/02/01 02:24:21;;;;;;;2.03;1.50;;;;;;;;;;4788154;29;87467;-69
2022/02/01 02:26:49;;;;;;;1.45;1.33;;;;;;;;;;4789948;29;86260;-68
2022/02/01 02:29:16;;;;;;;1.60;1.50;;;;;;;;;;4772999;29;87841;-68
2022/02/01 02:31:44;;;;;;;1.38;1.27;;;;;;;;;;4775299;29;87684;-68
2022/02/01 02:34:13;;;;;;;1.27;1.17;;;;;;;;;;4774428;29;87843;-69
2022/02/01 02:36:44;;;;;;;1.40;1.30;;;;;;;;;;4774580;29;86814;-68
2022/02/01 02:39:27;;;;;;;1.10;1.10;;;;;;;;;;4774951;29;86909;-69
2022/02/01 02:42:09;;;;;;;1.27;1.17;;;;;;;;;;4786969;29;87278;-68
2022/02/01 02:47:24;;;;;;;1.13;1.10;;;;;;;;;;4786259;29;87077;-68
2022/02/01 02:49:51;;;;;;;1.40;1.30;;;;;;;;;;4788628;29;89022;-68
2022/02/01 02:52:18;;;;;;;1.60;1.50;;;;;;;;;;4788720;29;88676;-67
2022/02/01 02:54:45;;;;;;;1.45;1.40;;;;;;;;;;4788904;29;86937;-67
2022/02/01 02:57:12;;;;;;;1.45;1.35;;;;;;;;;;4774180;29;87613;-66
2022/02/01 02:59:39;;;;;;;1.92;1.50;;;;;;;;;;4773995;29;91336;-66
2022/02/01 03:02:07;;;;;;;1.98;1.85;;;;;;;;;;4774370;29;88399;-68
2022/02/01 03:04:35;;;;;;;1.30;1.20;;;;;;;;;;4787886;29;87437;-68
2022/02/01 03:07:04;;;;;;;2.83;1.30;;;;;;;;;;4775050;29;86937;-67
2022/02/01 03:09:34;;;;;;;1.73;1.63;;;;;;;;;;4774606;29;87682;-69
2022/02/01 03:12:03;;;;;;;5.72;1.67;;;;;;;;;;4788174;29;87582;-69
2022/02/01 03:19:56;;;;;;;2.95;1.40;;;;;;;;;;4787927;29;89194;-69
2022/02/01 03:22:25;;;;;;;6.93;1.95;;;;;;;;;;4786495;29;89096;-69
2022/02/01 03:24:54;;;;;;;1.40;1.30;;;;;;;;;;4780019;29;88387;-68
2022/02/01 03:27:21;;;;;;;15.65;2.03;;;;;;;;;;4788556;29;87186;-70
2022/02/01 03:29:49;;;;;;;1.05;1.05;;;;;;;;;;4774519;29;87704;-68
2022/02/01 03:32:16;;;;;;;1.63;1.23;;;;;;;;;;4774368;29;87677;-69
2022/02/01 03:34:43;;;;;;;1.08;1.08;;;;;;;;;;4774310;29;86937;-69
2022/02/01 03:37:10;;;;;;;1.50;1.40;;;;;;;;;;4773556;29;87053;-68
2022/02/01 03:39:37;;;;;;;1.35;1.33;;;;;;;;;;4772795;29;86970;-69
2022/02/01 03:42:04;;;;;;;1.33;1.23;;;;;;;;;;4774100;29;88872;-70
2022/02/01 03:44:33;;;;;;;5.22;1.35;;;;;;;;;;4774049;29;87037;-69
2022/02/01 03:47:03;;;;;;;2.75;1.25;;;;;;;;;;4788546;29;87338;-70
2022/02/01 03:49:35;;;;;;;1.30;1.27;;;;;;;;;;4773968;29;89194;-70
2022/02/01 03:52:03;;;;;;;4.45;1.25;;;;;;;;;;4788104;29;89651;-69
2022/02/01 03:54:31;;;;;;;1.58;1.48;;;;;;;;;;4785794;29;87187;-69
2022/02/01 03:56:59;;;;;;;3.42;1.55;;;;;;;;;;4787565;29;87445;-68
2022/02/01 03:59:26;;;;;;;3.85;1.52;;;;;;;;;;4773556;29;88961;-69
2022/02/01 04:01:57;;;;;;;2.80;1.30;;;;;;;;;;4774088;29;88928;-68
2022/02/01 04:04:27;;;;;;;1.30;1.20;;;;;;;;;;4773700;29;87515;-69
2022/02/01 04:06:54;;;;;;;1.48;1.38;;;;;;;;;;4773030;29;86494;-69
2022/02/01 04:09:23;;;;;;;1.75;1.65;;;;;;;;;;4773643;29;89176;-69
2022/02/01 04:11:51;;;;;;;1.52;1.30;;;;;;;;;;4787499;29;87447;-68
2022/02/01 04:14:21;;;;;;;1.60;1.50;;;;;;;;;;4771672;29;87850;-69
2022/02/01 04:16:48;;;;;;;1.30;1.20;;;;;;;;;;4773654;29;86919;-71
2022/02/01 04:19:15;;;;;;;1.10;1.10;;;;;;;;;;4772893;29;88282;-69
2022/02/01 04:21:51;;;;;;;1.40;1.33;;;;;;;;;;4773246;29;88884;-69
2022/02/01 04:24:18;;;;;;;6.97;1.98;;;;;;;;;;4774069;29;86913;-70
2022/02/01 04:26:45;;;;;;;2.65;1.30;;;;;;;;;;4773357;29;87515;-69
2022/02/01 04:29:11;;;;;;;3.45;1.33;;;;;;;;;;4772426;29;87750;-70
2022/02/01 04:31:38;;;;;;;2.97;1.58;;;;;;;;;;4772762;29;88472;-69
2022/02/01 04:34:13;;;;;;;1.20;1.10;;;;;;;;;;4772573;29;87368;-69
2022/02/01 04:36:54;;;;;;;2.85;1.40;;;;;;;;;;4759578;29;86960;-69
2022/02/01 04:39:22;;;;;;;2.35;1.85;;;;;;;;;;4756012;29;88749;-69
2022/02/01 04:41:49;;;;;;;1.42;1.27;;;;;;;;;;4752683;29;88404;-70
2022/02/01 04:44:16;;;;;;;2.83;1.85;;;;;;;;;;4779913;29;87115;-69
2022/02/01 04:46:43;;;;;;;5.05;1.58;;;;;;;;;;4773578;29;86964;-70
2022/02/01 04:49:11;;;;;;;1.40;1.30;;;;;;;;;;4772853;29;87564;-70
2022/02/01 04:51:38;;;;;;;1.60;1.50;;;;;;;;;;4787380;29;87382;-69
2022/02/01 04:54:06;;;;;;;1.30;1.20;;;;;;;;;;4773310;29;87498;-70
2022/02/01 04:56:35;;;;;;;1.40;1.30;;;;;;;;;;4773626;29;86692;-70
2022/02/01 04:59:03;;;;;;;2.80;1.33;;;;;;;;;;4773040;29;87960;-69
2022/02/01 05:01:39;;;;;;;1.45;1.38;;;;;;;;;;4786773;29;87493;-70
2022/02/01 05:04:07;;;;;;;1.58;1.48;;;;;;;;;;4773266;29;87802;-70
2022/02/01 05:06:35;;;;;;;1.40;1.30;;;;;;;;;;4788658;29;87014;-70
2022/02/01 05:09:02;;;;;;;1.50;1.40;;;;;;;;;;4775282;29;87870;-70
2022/02/01 05:11:29;;;;;;;1.70;1.60;;;;;;;;;;4775855;29;87341;-70
2022/02/01 05:16:41;;;;;;;1.42;1.33;;;;;;;;;;4776931;29;87017;-69
2022/02/01 05:19:12;;;;;;;5.00;1.50;;;;;;;;;;4775137;29;88218;-70
2022/02/01 05:21:40;;;;;;;2.08;1.65;;;;;;;;;;4777057;29;87187;-70
2022/02/01 05:24:10;;;;;;;2.47;1.48;;;;;;;;;;4776502;29;87133;-70
2022/02/01 05:26:37;;;;;;;1.50;1.40;;;;;;;;;;4760943;29;87256;-69
2022/02/01 05:29:04;;;;;;;1.50;1.40;;;;;;;;;;4775613;29;88446;-70
2022/02/01 05:31:31;;;;;;;1.65;1.55;;;;;;;;;;4790202;29;89515;-70
2022/02/01 05:33:58;;;;;;;1.48;1.48;;;;;;;;;;4775885;29;87514;-70
2022/02/01 05:36:27;;;;;;;2.35;1.52;;;;;;;;;;4790251;29;87038;-70
2022/02/01 05:38:54;;;;;;;1.48;1.38;;;;;;;;;;4790172;29;89679;-70
2022/02/01 05:41:24;;;;;;;2.40;1.58;;;;;;;;;;4774435;29;87449;-70
2022/02/01 05:43:51;;;;;;;3.20;2.25;;;;;;;;;;4789097;29;86938;-70
2022/02/01 05:46:18;;;;;;;1.80;1.70;;;;;;;;;;4788945;29;86730;-70
2022/02/01 05:48:45;;;;;;;1.63;1.52;;;;;;;;;;4775869;29;89333;-71
2022/02/01 05:51:12;;;;;;;2.58;2.38;;;;;;;;;;4785433;29;87777;-70
2022/02/01 05:53:39;;;;;;;2.08;1.85;;;;;;;;;;4775002;29;88004;-70
2022/02/01 05:56:06;;;;;;;1.30;1.30;;;;;;;;;;4775475;29;86983;-70
2022/02/01 05:58:33;;;;;;;1.38;1.27;;;;;;;;;;4789614;29;87902;-71
2022/02/01 06:01:00;;;;;;;1.67;1.58;;;;;;;;;;4775137;29;88502;-70
2022/02/01 06:03:28;;;;;;;1.83;1.50;;;;;;;;;;4774546;29;87320;-71
2022/02/01 06:05:55;;;;;;;1.50;1.40;;;;;;;;;;4788998;29;86923;-69
2022/02/01 06:08:28;;;;;;;1.45;1.35;;;;;;;;;;4770614;29;88096;-70
2022/02/01 06:10:55;;;;;;;1.20;1.20;;;;;;;;;;4772280;29;87611;-69
2022/02/01 06:13:22;;;;;;;1.45;1.35;;;;;;;;;;4785538;29;87484;-69
2022/02/01 06:15:49;;;;;;;1.75;1.60;;;;;;;;;;4771509;29;87304;-69
2022/02/01 06:18:16;;;;;;;1.60;1.50;;;;;;;;;;4770491;29;88688;-70
2022/02/01 06:20:44;;;;;;;1.90;1.50;;;;;;;;;;4754523;29;89304;-70
2022/02/01 06:23:14;;;;;;;2.15;1.60;;;;;;;;;;4774844;29;88126;-70
2022/02/01 06:28:09;;;;;;;6.13;1.70;;;;;;;;;;4774737;29;86821;-70
2022/02/01 06:30:36;;;;;;;2.47;1.63;;;;;;;;;;4788133;29;87769;-71
2022/02/01 06:33:03;;;;;;;2.05;1.40;;;;;;;;;;4766784;29;86976;-70
2022/02/01 06:35:30;;;;;;;2.20;2.08;;;;;;;;;;4788924;29;86569;-69
2022/02/01 06:37:57;;;;;;;3.08;1.77;;;;;;;;;;4787182;29;88187;-70
2022/02/01 06:40:24;;;;;;;3.45;1.70;;;;;;;;;;4774380;29;87505;-70
2022/02/01 06:42:52;;;;;;;1.60;1.50;;;;;;;;;;4774043;29;87924;-71
2022/02/01 06:45:19;;;;;;;3.47;1.60;;;;;;;;;;4772983;29;89613;-69
2022/02/01 06:47:47;;;;;;;2.00;1.52;;;;;;;;;;4774044;29;87809;-69
2022/02/01 06:50:19;;;;;;;2.10;1.90;;;;;;;;;;4786857;29;87088;-69
2022/02/01 06:52:47;;;;;;;1.65;1.55;;;;;;;;;;4771317;29;87448;-69
2022/02/01 06:55:21;;;;;;;2.22;1.75;;;;;;;;;;4786621;29;87680;-69
2022/02/01 06:57:48;;;;;;;3.97;1.75;;;;;;;;;;4773788;29;88068;-69
2022/02/01 07:00:15;;;;;;;1.60;1.48;;;;;;;;;;4787509;29;89186;-69
2022/02/01 07:02:42;;;;;;;1.67;1.58;;;;;;;;;;4778552;29;87114;-69
2022/02/01 07:05:09;;;;;;;1.40;1.38;;;;;;;;;;4757563;29;87492;-68
2022/02/01 07:07:36;;;;;;;7.30;1.80;;;;;;;;;;4772446;29;88706;-69
2022/02/01 07:10:04;;;;;;;4.05;1.48;;;;;;;;;;4773850;29;88831;-69
2022/02/01 07:12:32;;;;;;;4.10;2.17;;;;;;;;;;4773574;29;87028;-69
2022/02/01 07:14:59;;;;;;;4.63;1.98;;;;;;;;;;4765508;29;87572;-69
2022/02/01 07:17:26;;;;;;;1.70;1.60;;;;;;;;;;4790017;29;89243;-69
2022/02/01 07:19:53;;;;;;;1.50;1.40;;;;;;;;;;4776048;29;86979;-69
2022/02/01 07:22:20;;;;;;;3.75;2.28;;;;;;;;;;4789431;29;87004;-69
2022/02/01 07:25:08;;;;;;;1.95;1.75;;;;;;;;;;4791063;29;86661;-68
2022/02/01 07:27:40;;;;;;;6.30;2.00;;;;;;;;;;4774942;29;89642;-68
2022/02/01 07:30:11;;;;;;;3.15;1.70;;;;;;;;;;4786679;29;87475;-69
2022/02/01 07:32:40;;;;;;;5.05;1.75;;;;;;;;;;4773935;29;88191;-68
2022/02/01 07:35:08;;;;;;;1.88;1.70;;;;;;;;;;4786989;29;87410;-69
2022/02/01 07:37:37;;;;;;;4.68;2.35;;;;;;;;;;4782857;29;87282;-69
2022/02/01 07:40:05;;;;;;;2.05;1.67;;;;;;;;;;4771478;29;87396;-69
2022/02/01 07:42:33;;;;;;;2.30;2.10;;;;;;;;;;4786721;29;87393;-69
2022/02/01 07:45:03;;;;;;;3.03;2.65;;;;;;;;;;4771298;29;87164;-69
2022/02/01 07:47:30;;;;;;;2.03;1.50;;;;;;;;;;4787484;29;89575;-68
2022/02/01 07:49:57;;;;;;;2.53;2.17;;;;;;;;;;4787719;29;89301;-68
2022/02/01 07:52:24;;;;;;;2.78;1.80;;;;;;;;;;4786712;29;86982;-68
2022/02/01 07:54:51;;;;;;;2.92;2.17;;;;;;;;;;4787397;29;87503;-69
2022/02/01 07:57:18;;;;;;;2.15;1.83;;;;;;;;;;4786019;29;88776;-68
2022/02/01 07:59:45;;;;;;;2.10;1.90;;;;;;;;;;4773381;29;89570;-68
2022/02/01 08:02:20;;;;;;;3.38;1.48;;;;;;;;;;4786686;29;87314;-69
2022/02/01 08:05:07;;;;;;;1.55;1.45;;;;;;;;;;4787315;29;87163;-69
2022/02/01 08:07:34;;;;;;;2.60;1.00;;;;;;;;;;4785417;29;87921;-69
2022/02/01 08:10:09;;;;;;;2.65;2.03;;;;;;;;;;4773144;29;87564;-69
2022/02/01 08:20:49;;;;;;;2.83;1.70;;;;;;;;;;4767338;29;87380;-68
2022/02/01 08:23:16;;;;;;;1.48;1.38;;;;;;;;;;4768437;29;88555;-69
2022/02/01 08:25:43;;;;;;;11.70;1.73;;;;;;;;;;4766599;29;87033;-70
2022/02/01 08:28:10;;;;;;;1.50;1.10;;;;;;;;;;4770902;29;89350;-70
2022/02/01 08:30:37;;;;;;;4.45;2.20;;;;;;;;;;4762255;29;87226;-71
2022/02/01 08:33:07;;;;;;;3.28;1.90;;;;;;;;;;4778787;29;87055;-69
2022/02/01 08:35:34;;;;;;;1.50;1.10;;;;;;;;;;4765301;29;87228;-68
2022/02/01 08:38:18;;;;;;;1.85;1.60;;;;;;;;;;4764249;29;88545;-69
2022/02/01 08:40:47;;;;;;;3.88;1.20;;;;;;;;;;4759895;29;86461;-69
2022/02/01 08:43:16;;;;;;;2.15;1.00;;;;;;;;;;4764786;29;87541;-69
2022/02/01 08:45:43;;;;;;;2.55;1.10;;;;;;;;;;4762506;29;86987;-70
2022/02/01 08:48:11;;;;;;;0.70;0.70;;;;;;;;;;4759858;29;89407;-69
2022/02/01 08:50:39;;;;;;;1.85;0.88;;;;;;;;;;4761296;29;89874;-72
2022/02/01 08:53:23;;;;;;;1.15;1.00;;;;;;;;;;4781760;29;86928;-69
2022/02/01 08:58:24;;;;;;;2.30;0.98;;;;;;;;;;4761452;29;89476;-69
2022/02/01 09:00:52;;;;;;;2.90;0.90;;;;;;;;;;4775561;29;87439;-69
2022/02/01 09:03:19;;;;;;;1.25;1.10;;;;;;;;;;4760573;29;86999;-68
2022/02/01 09:05:51;;;;;;;4.38;1.20;;;;;;;;;;4762086;29;86314;-68
2022/02/01 09:08:20;;;;;;;2.50;1.10;;;;;;;;;;4765926;29;88700;-67
2022/02/01 09:10:47;;;;;;;0.75;0.75;;;;;;;;;;4754653;29;87507;-67
2022/02/01 09:13:14;;;;;;;1.50;0.90;;;;;;;;;;4763261;29;88264;-67
2022/02/01 09:15:41;;;;;;;1.13;0.88;;;;;;;;;;4767323;29;87135;-68
2022/02/01 09:18:09;;;;;;;1.38;0.90;;;;;;;;;;4775478;29;87004;-68
2022/02/01 09:20:36;;;;;;;1.55;0.98;;;;;;;;;;4754467;29;88162;-68
2022/02/01 09:23:03;;;;;;;3.17;0.90;;;;;;;;;;4764446;29;87042;-69
2022/02/01 09:25:30;;;;;;;3.63;1.10;;;;;;;;;;4771011;29;87001;-68
2022/02/01 09:27:58;;;;;;;1.65;1.55;;;;;;;;;;4771101;29;88064;-68
2022/02/01 09:30:26;;;;;;;7.22;1.10;;;;;;;;;;4772418;29;87384;-68
2022/02/01 09:32:53;;;;;;;1.58;0.90;;;;;;;;;;4786137;29;86967;-68
2022/02/01 09:35:20;;;;;;;1.95;1.70;;;;;;;;;;4770522;29;87103;-68
2022/02/01 09:37:48;;;;;;;6.60;1.20;;;;;;;;;;4785670;29;89392;-69
2022/02/01 09:40:35;;;;;;;1.27;0.98;;;;;;;;;;4766651;29;91387;-67
2022/02/01 09:43:02;;;;;;;7.15;1.10;;;;;;;;;;4766228;29;87715;-68
2022/02/01 09:45:33;;;;;;;2.88;1.05;;;;;;;;;;4771412;29;87148;-68
2022/02/01 09:48:04;;;;;;;0.82;0.82;;;;;;;;;;4784867;29;87795;-68
2022/02/01 09:50:31;;;;;;;1.30;1.10;;;;;;;;;;4771594;29;87712;-67
2022/02/01 09:52:58;;;;;;;6.00;1.23;;;;;;;;;;4773765;29;86867;-69
2022/02/01 09:55:28;;;;;;;0.98;0.85;;;;;;;;;;4773504;29;86262;-68
2022/02/01 09:57:56;;;;;;;1.95;0.90;;;;;;;;;;4772587;29;88702;-68
2022/02/01 10:00:30;;;;;;;2.85;1.10;;;;;;;;;;4773003;29;88214;-67
2022/02/01 10:03:05;;;;;;;4.60;1.30;;;;;;;;;;4772584;29;87838;-68
2022/02/01 10:05:35;;;;;;;3.17;0.80;;;;;;;;;;4774561;29;87623;-69
2022/02/01 10:08:03;;;;;;;1.02;0.85;;;;;;;;;;4771529;29;88169;-68
2022/02/01 10:10:31;;;;;;;1.17;0.80;;;;;;;;;;4788095;29;87885;-68
2022/02/01 10:13:03;;;;;;;2.50;1.00;;;;;;;;;;4773994;29;86917;-69
2022/02/01 10:15:34;;;;;;;2.70;0.80;;;;;;;;;;4788038;29;87071;-68
2022/02/01 10:18:03;;;;;;;1.00;0.85;;;;;;;;;;4784744;29;87808;-69
2022/02/01 10:20:38;;;;;;;3.85;1.08;;;;;;;;;;4774136;29;88959;-68
2022/02/01 10:23:21;;;;;;;1.25;0.80;;;;;;;;;;4769420;29;86915;-69
2022/02/01 10:26:01;;;;;;;3.25;1.20;;;;;;;;;;4766536;29;86920;-69
2022/02/01 10:31:29;;;;;;;0.98;0.98;;;;;;;;;;4774266;29;90148;-69
2022/02/01 10:36:38;;;;;;;4.43;1.45;;;;;;;;;;4774138;29;87448;-69
2022/02/01 10:39:19;;;;;;;6.10;1.23;;;;;;;;;;4788505;29;87722;-69
2022/02/01 10:42:01;;;;;;;7.78;1.83;;;;;;;;;;4787591;29;88010;-68
2022/02/01 10:44:49;;;;;;;1.10;0.90;;;;;;;;;;4786924;29;87916;-69
2022/02/01 10:47:37;;;;;;;2.42;0.90;;;;;;;;;;4788629;29;86551;-68
2022/02/01 10:50:07;;;;;;;4.07;0.90;;;;;;;;;;4788052;29;89443;-68
2022/02/01 10:52:40;;;;;;;1.73;0.90;;;;;;;;;;4788080;29;87840;-68
2022/02/01 10:55:09;;;;;;;0.98;0.93;;;;;;;;;;4788197;29;87812;-67
2022/02/01 10:57:36;;;;;;;5.43;1.20;;;;;;;;;;4791741;29;87048;-68
2022/02/01 11:00:05;;;;;;;1.20;1.10;;;;;;;;;;4772327;29;88386;-69
2022/02/01 11:02:33;;;;;;;0.95;0.90;;;;;;;;;;4784570;29;87509;-69
2022/02/01 11:05:00;;;;;;;1.27;1.13;;;;;;;;;;4773190;29;86938;-68
2022/02/01 11:07:52;;;;;;;1.17;1.00;;;;;;;;;;4774695;29;86993;-68
2022/02/01 11:10:19;;;;;;;2.13;1.77;;;;;;;;;;4773138;29;89050;-68
2022/02/01 11:12:46;;;;;;;2.05;0.90;;;;;;;;;;4787906;29;87413;-69
2022/02/01 11:15:21;;;;;;;3.53;1.38;;;;;;;;;;4772316;29;87020;-69
2022/02/01 11:17:51;;;;;;;1.35;0.80;;;;;;;;;;4774058;29;87485;-69
2022/02/01 11:20:31;;;;;;;1.20;1.02;;;;;;;;;;4771796;29;89231;-69
2022/02/01 11:23:07;;;;;;;0.70;0.70;;;;;;;;;;4757725;29;88889;-69
2022/02/01 11:25:44;;;;;;;0.90;0.73;;;;;;;;;;4788060;29;86942;-69
2022/02/01 11:28:32;;;;;;;2.95;0.73;;;;;;;;;;4782197;29;89101;-69
2022/02/01 11:31:01;;;;;;;4.47;1.02;;;;;;;;;;4773295;29;88725;-69
2022/02/01 11:33:39;;;;;;;1.80;0.80;;;;;;;;;;4786067;29;87440;-68
2022/02/01 11:36:08;;;;;;;2.17;0.80;;;;;;;;;;4787047;29;87082;-70
2022/02/01 11:38:35;;;;;;;0.75;0.60;;;;;;;;;;4773813;29;86553;-71
2022/02/01 11:41:06;;;;;;;3.63;1.05;;;;;;;;;;4773485;29;87766;-70
2022/02/01 11:43:39;;;;;;;0.60;0.60;;;;;;;;;;4771372;29;87967;-70
2022/02/01 11:46:09;;;;;;;0.80;0.80;;;;;;;;;;4772177;29;87942;-71
2022/02/01 11:48:40;;;;;;;2.47;0.60;;;;;;;;;;4787032;29;87560;-71
2022/02/01 11:51:10;;;;;;;2.00;0.60;;;;;;;;;;4786129;29;87801;-71
2022/02/01 11:53:44;;;;;;;1.45;0.77;;;;;;;;;;4787051;29;87841;-70
2022/02/01 11:56:14;;;;;;;1.38;0.77;;;;;;;;;;4773160;29;87263;-69
2022/02/01 11:58:47;;;;;;;2.60;1.10;;;;;;;;;;4773495;29;87049;-69
2022/02/01 12:01:25;;;;;;;3.58;1.25;;;;;;;;;;4772477;29;87998;-70
2022/02/01 12:04:09;;;;;;;0.93;0.70;;;;;;;;;;4765754;29;87475;-71
2022/02/01 12:06:58;;;;;;;1.17;0.77;;;;;;;;;;4765780;29;87685;-71
2022/02/01 12:09:29;;;;;;;1.33;0.68;;;;;;;;;;4770732;29;87169;-71
2022/02/01 12:11:58;;;;;;;0.80;0.80;;;;;;;;;;4768962;29;88745;-71
2022/02/01 12:14:26;;;;;;;3.22;0.90;;;;;;;;;;4769591;29;88588;-71
2022/02/01 12:16:54;;;;;;;2.85;0.98;;;;;;;;;;4771720;29;87126;-70
2022/02/01 12:19:51;;;;;;;5.45;0.85;;;;;;;;;;4772693;29;87391;-72
2022/02/01 12:23:02;;;;;;;3.60;0.90;;;;;;;;;;4784966;29;87868;-73
2022/02/01 12:25:29;;;;;;;1.35;0.80;;;;;;;;;;4772377;29;88072;-77
2022/02/01 12:27:56;;;;;;;3.38;1.27;;;;;;;;;;4786670;29;86973;-71
2022/02/01 12:30:23;;;;;;;2.92;0.93;;;;;;;;;;4772159;29;86188;-71
2022/02/01 12:32:53;;;;;;;9.80;1.17;;;;;;;;;;4786680;29;87725;-71
2022/02/01 12:35:33;;;;;;;3.05;1.17;;;;;;;;;;4772068;29;87533;-71
2022/02/01 12:38:11;;;;;;;3.78;1.05;;;;;;;;;;4770717;29;87893;-71
2022/02/01 12:40:38;;;;;;;3.53;1.10;;;;;;;;;;4772896;29;86909;-71
2022/02/01 12:43:20;;;;;;;3.20;1.02;;;;;;;;;;4770920;29;89662;-71
2022/02/01 12:46:00;;;;;;;3.80;1.33;;;;;;;;;;4784497;29;88214;-71
2022/02/01 12:48:29;;;;;;;1.23;0.95;;;;;;;;;;4772280;29;86858;-71
2022/02/01 12:51:07;;;;;;;7.38;1.25;;;;;;;;;;4772773;29;86972;-71
2022/02/01 12:53:49;;;;;;;3.75;0.80;;;;;;;;;;4766008;29;88256;-72
2022/02/01 12:56:19;;;;;;;1.60;1.50;;;;;;;;;;4772819;29;89381;-71
2022/02/01 12:59:00;;;;;;;5.88;0.98;;;;;;;;;;4771127;29;86994;-72
2022/02/01 13:01:35;;;;;;;1.27;0.98;;;;;;;;;;4779335;29;87033;-71
2022/02/01 13:04:04;;;;;;;1.17;0.95;;;;;;;;;;4771478;29;89413;-72
2022/02/01 13:06:35;;;;;;;3.60;1.13;;;;;;;;;;4786470;29;88432;-72
2022/02/01 13:14:43;;;;;;;3.35;0.90;;;;;;;;;;4776472;29;87806;-74
2022/02/01 13:17:40;;;;;;;0.70;0.70;;;;;;;;;;4768060;29;88529;-75
2022/02/01 13:20:20;;;;;;;2.97;1.20;;;;;;;;;;4767225;29;86924;-74
2022/02/01 13:22:57;;;;;;;1.33;0.90;;;;;;;;;;4770282;29;86722;-71
2022/02/01 13:25:34;;;;;;;24.80;3.00;;;;;;;;;;4769966;29;88813;-70
2022/02/01 13:28:05;;;;;;;23.52;2.30;;;;;;;;;;4785952;29;87720;-70
2022/02/01 13:30:35;;;;;;;18.38;1.98;;;;;;;;;;4774950;29;87924;-70
2022/02/01 13:33:05;;;;;;;3.25;0.90;;;;;;;;;;4788456;29;87261;-71
2022/02/01 13:35:50;;;;;;;10.25;1.70;;;;;;;;;;4787740;29;87744;-71
2022/02/01 13:38:18;;;;;;;3.10;0.90;;;;;;;;;;4776377;29;87560;-71
2022/02/01 13:40:45;;;;;;;11.35;1.23;;;;;;;;;;4774978;29;87002;-71
2022/02/01 13:43:22;;;;;;;65.28;6.70;;;;;;;;;;4775108;29;86985;-70
2022/02/01 13:45:51;;;;;;;1.23;1.10;;;;;;;;;;4773308;29;87699;-71
2022/02/01 13:48:25;;;;;;;1.15;0.90;;;;;;;;;;4774277;29;87134;-70
2022/02/01 13:50:56;;;;;;;15.30;3.42;;;;;;;;;;4788340;29;87122;-70
2022/02/01 13:53:23;;;;;;;2.20;0.85;;;;;;;;;;4781395;29;87283;-70
2022/02/01 13:55:59;;;;;;;2.50;1.10;;;;;;;;;;4772596;29;90420;-70
2022/02/01 13:58:30;;;;;;;0.95;0.77;;;;;;;;;;4773154;29;88188;-72
2022/02/01 14:00:59;;;;;;;3.38;0.93;;;;;;;;;;4782692;29;87374;-70
2022/02/01 14:09:16;;;;;;;2.90;1.02;;;;;;;;;;4758616;29;87183;-71
2022/02/01 14:12:23;;;;;;;1.42;1.33;;;;;;;;;;4773456;29;87157;-71
2022/02/01 14:28:44;;;;;;;5.57;1.02;;;;;;;;;;4774500;29;88208;-75
2022/02/01 14:34:03;;;;;;;0.65;0.65;;;;;;;;;;4772709;29;87011;-74
2022/02/01 14:36:34;;;;;;;0.57;0.57;;;;;;;;;;4773951;29;87401;-77
2022/02/01 14:44:41;;;;;;;1.17;1.08;;;;;;;;;;4781875;29;86963;-74
2022/02/01 14:47:13;;;;;;;2.20;0.80;;;;;;;;;;4772368;29;87466;-74
2022/02/01 14:49:41;;;;;;;2.47;1.05;;;;;;;;;;4772806;29;90300;-75
2022/02/01 14:52:08;;;;;;;1.10;1.00;;;;;;;;;;4773765;29;88264;-73
2022/02/01 14:54:43;;;;;;;2.58;1.00;;;;;;;;;;4773215;29;87404;-74
2022/02/01 15:13:31;;;;;;;4.27;1.20;;;;;;;;;;4785010;29;89108;-73
2022/02/01 15:16:18;;;;;;;0.90;0.90;;;;;;;;;;4781478;29;88259;-74
2022/02/01 15:18:45;;;;;;;1.70;0.90;;;;;;;;;;4772929;29;87019;-73
2022/02/01 15:21:13;;;;;;;2.08;1.10;;;;;;;;;;4773608;29;88073;-74
2022/02/01 15:23:42;;;;;;;1.10;1.00;;;;;;;;;;4787198;29;88718;-73
2022/02/01 15:26:09;;;;;;;2.67;1.00;;;;;;;;;;4773967;29;87440;-73
2022/02/01 15:28:36;;;;;;;1.85;0.90;;;;;;;;;;4787348;29;87453;-73
2022/02/01 15:31:24;;;;;;;1.70;1.42;;;;;;;;;;4773686;29;89763;-74
2022/02/01 15:33:52;;;;;;;2.47;0.80;;;;;;;;;;4772391;29;87514;-73
2022/02/01 15:36:19;;;;;;;1.15;1.05;;;;;;;;;;4777129;29;87277;-73
2022/02/01 15:45:56;;;;;;;28.13;6.88;;;;;;;;;;4774113;29;86968;-74
2022/02/01 15:58:24;;;;;;;6.80;4.13;;;;;;;;;;4784438;29;86981;-73
2022/02/01 16:00:52;;;;;;;10.05;7.28;;;;;;;;;;4774032;29;86215;-72
2022/02/01 16:03:23;;;;;;;13.80;12.38;;;;;;;;;;4772753;29;87230;-72
2022/02/01 16:05:50;;;;;;;5.88;2.80;;;;;;;;;;4786014;29;88355;-72
2022/02/01 16:08:38;;;;;;;1.73;1.60;;;;;;;;;;4786523;29;88325;-72
2022/02/01 16:11:08;;;;;;;2.78;2.28;;;;;;;;;;4784353;29;86917;-72
2022/02/01 16:13:41;;;;;;;1.40;1.20;;;;;;;;;;4786257;29;89240;-72
2022/02/01 16:16:15;;;;;;;3.97;1.20;;;;;;;;;;4773126;29;89366;-71
2022/02/01 16:18:45;;;;;;;2.15;1.33;;;;;;;;;;4787203;29;87001;-72
2022/02/01 16:21:12;;;;;;;18.17;2.15;;;;;;;;;;4772553;29;87195;-71
2022/02/01 16:23:53;;;;;;;5.13;3.90;;;;;;;;;;4784849;29;87766;-71
2022/02/01 16:26:20;;;;;;;8.40;4.38;;;;;;;;;;4786904;29;87749;-72
2022/02/01 16:28:47;;;;;;;5.38;2.90;;;;;;;;;;4773360;29;87475;-72
2022/02/01 16:31:15;;;;;;;8.57;4.22;;;;;;;;;;4787314;29;86986;-71
2022/02/01 16:33:43;;;;;;;17.92;9.25;;;;;;;;;;4772215;29;89321;-71
2022/02/01 16:36:32;;;;;;;44.30;32.50;;;;;;;;;;4772472;29;90177;-71
2022/02/01 16:39:03;;;;;;;18.33;13.88;;;;;;;;;;4770829;29;88597;-71
2022/02/01 16:41:31;;;;;;;17.00;10.07;;;;;;;;;;4786586;29;86964;-71
2022/02/01 16:44:00;;;;;;;15.57;5.78;;;;;;;;;;4770020;29;87805;-74
2022/02/01 16:46:29;;;;;;;7.35;4.97;;;;;;;;;;4785750;29;87737;-72
2022/02/01 16:48:56;;;;;;;16.23;5.93;;;;;;;;;;4772844;29;86896;-71
2022/02/01 16:51:25;;;;;;;9.05;4.88;;;;;;;;;;4771690;29;86361;-72
2022/02/01 16:53:56;;;;;;;11.80;6.03;;;;;;;;;;4771506;29;89781;-72
2022/02/01 16:56:38;;;;;;;12.38;8.95;;;;;;;;;;4771311;29;87735;-74
2022/02/01 16:59:26;;;;;;;6.57;5.20;;;;;;;;;;4784636;29;88394;-72
2022/02/01 17:01:53;;;;;;;8.85;6.15;;;;;;;;;;4785086;29;87219;-73
2022/02/01 17:04:20;;;;;;;13.65;6.53;;;;;;;;;;4774360;29;88087;-71
2022/02/01 17:06:48;;;;;;;9.90;7.28;;;;;;;;;;4775370;29;87700;-72
2022/02/01 17:09:18;;;;;;;18.15;8.45;;;;;;;;;;4775364;29;87061;-76
2022/02/01 17:17:00;;;;;;;13.13;6.68;;;;;;;;;;4775834;29;87542;-73
2022/02/01 17:21:59;;;;;;;10.20;6.90;;;;;;;;;;4788729;29;87586;-72
2022/02/01 17:24:29;;;;;;;16.65;8.63;;;;;;;;;;4788550;29;89007;-72
2022/02/01 17:26:57;;;;;;;18.83;10.25;;;;;;;;;;4788775;29;88440;-72
2022/02/01 17:29:23;;;;;;;26.23;11.93;;;;;;;;;;4773928;29;87045;-72
2022/02/01 17:31:50;;;;;;;15.25;8.75;;;;;;;;;;4788958;29;87592;-76
2022/02/01 17:34:17;;;;;;;17.05;8.48;;;;;;;;;;4774085;29;87900;-73
2022/02/01 17:36:44;;;;;;;20.15;6.70;;;;;;;;;;4773960;29;87469;-73
2022/02/01 17:39:11;;;;;;;18.95;8.02;;;;;;;;;;4773774;29;87029;-72
2022/02/01 17:41:38;;;;;;;11.48;6.60;;;;;;;;;;4774898;29;86402;-79
2022/02/01 17:44:07;;;;;;;14.48;6.47;;;;;;;;;;4787674;29;89324;-72
2022/02/01 17:46:44;;;;;;;11.57;6.68;;;;;;;;;;4773761;29;87784;-71
2022/02/01 17:49:16;;;;;;;11.40;5.03;;;;;;;;;;4777933;29;87952;-77
2022/02/01 17:54:23;;;;;;;13.90;5.72;;;;;;;;;;4788898;29;88154;-72
2022/02/01 17:56:53;;;;;;;9.60;5.40;;;;;;;;;;4774170;29;87744;-71
2022/02/01 17:59:21;;;;;;;12.18;5.25;;;;;;;;;;4775716;29;86878;-72
2022/02/01 18:01:48;;;;;;;19.80;8.00;;;;;;;;;;4760533;29;86941;-72